Time;durP1;ratioP1;P1;durP2;ratioP2;P2;SDS_P1;SDS_P2;PMS_P1;PMS_P2;Temp;Humidity;BMP_temperature;BMP_pressure;BME280_temperature;BME280_humidity;BME280_pressure;Samples;Min_cycle;Max_cycle;Signal;HPM_P1;HPM_P2
2021/06/23 00:01:20;;;;;;;40.83;10.38;;;691.40;1996.80;;;;;;5075000;28;20032;-85
2021/06/23 00:03:46;;;;;;;41.70;11.68;;;691.40;1996.80;;;;;;5074607;28;20468;-85
2021/06/23 00:06:12;;;;;;;36.20;11.30;;;691.40;1996.80;;;;;;5075246;28;20027;-84
2021/06/23 00:08:37;;;;;;;53.30;12.48;;;691.50;1971.20;;;;;;5074154;28;20025;-82
2021/06/23 00:11:04;;;;;;;46.08;12.93;;;691.60;1971.20;;;;;;5075566;28;20025;-84
2021/06/23 00:13:34;;;;;;;53.00;12.55;;;691.50;1996.80;;;;;;5075604;28;20104;-83
2021/06/23 00:16:01;;;;;;;51.22;12.32;;;691.40;1996.80;;;;;;5074138;28;20017;-85
2021/06/23 00:18:27;;;;;;;39.92;11.93;;;691.40;1996.80;;;;;;5076427;28;20021;-84
2021/06/23 00:20:53;;;;;;;48.70;11.48;;;691.30;1996.80;;;;;;5075874;28;20103;-78
2021/06/23 00:23:19;;;;;;;34.65;10.82;;;691.30;2022.40;;;;;;5072227;28;20049;-77
2021/06/23 00:25:44;;;;;;;46.03;13.13;;;691.30;2022.40;;;;;;5073567;28;20035;-78
2021/06/23 00:28:10;;;;;;;48.42;12.18;;;691.30;2022.40;;;;;;5074719;28;20040;-87
2021/06/23 00:30:36;;;;;;;48.85;12.02;;;666.50;2022.40;;;;;;5077922;28;20473;-87
2021/06/23 00:33:06;;;;;;;42.42;12.25;;;666.50;2022.40;;;;;;5077472;28;20031;-81
2021/06/23 00:35:32;;;;;;;49.35;12.23;;;666.40;2048.00;;;;;;5075176;28;20020;-83
2021/06/23 00:37:58;;;;;;;47.88;12.57;;;666.30;2048.00;;;;;;5072990;28;20025;-82
2021/06/23 00:40:24;;;;;;;49.15;11.90;;;666.30;2048.00;;;;;;5073569;28;20028;-85
2021/06/23 00:42:52;;;;;;;43.35;13.00;;;666.20;2048.00;;;;;;5071128;28;20472;-85
2021/06/23 00:45:19;;;;;;;40.22;12.55;;;666.20;2073.60;;;;;;5073497;28;20461;-80
2021/06/23 00:47:46;;;;;;;44.03;11.80;;;666.10;2073.60;;;;;;5073115;28;20037;-80
2021/06/23 00:50:15;;;;;;;45.40;12.48;;;666.00;2073.60;;;;;;5075757;28;20024;-84
2021/06/23 00:52:41;;;;;;;41.00;12.00;;;665.90;2073.60;;;;;;5072545;28;20411;-81
2021/06/23 00:55:08;;;;;;;39.03;12.32;;;665.90;2073.60;;;;;;5072430;28;20055;-76
2021/06/23 00:57:34;;;;;;;43.92;12.85;;;665.80;2073.60;;;;;;5072409;28;20484;-78
2021/06/23 01:00:00;;;;;;;39.58;11.73;;;665.90;2099.20;;;;;;5072903;28;20059;-88
2021/06/23 01:02:27;;;;;;;35.50;11.18;;;666.20;2048.00;;;;;;5069294;28;20025;-86
2021/06/23 01:04:54;;;;;;;35.13;11.18;;;666.00;2048.00;;;;;;5070367;28;20021;-75
2021/06/23 01:07:21;;;;;;;38.92;12.30;;;665.70;2073.60;;;;;;5072258;28;20396;-80
2021/06/23 01:09:47;;;;;;;39.28;10.85;;;665.60;2073.60;;;;;;5072735;28;20409;-88
2021/06/23 01:12:28;;;;;;;38.85;12.55;;;665.60;2099.20;;;;;;5071774;28;20112;-77
2021/06/23 01:15:01;;;;;;;48.33;11.38;;;640.90;2073.60;;;;;;5066781;28;20070;-78
2021/06/23 01:17:29;;;;;;;45.50;10.70;;;640.80;2073.60;;;;;;5072882;28;20031;-86
2021/06/23 01:20:21;;;;;;;34.28;10.73;;;665.60;2073.60;;;;;;5075075;28;20028;-75
2021/06/23 01:22:46;;;;;;;36.85;12.20;;;640.90;2073.60;;;;;;5073992;28;20049;-77
2021/06/23 01:25:14;;;;;;;32.97;11.32;;;640.80;2073.60;;;;;;5076036;28;20146;-76
2021/06/23 01:27:42;;;;;;;41.78;10.35;;;640.70;2073.60;;;;;;5076074;28;20039;-79
2021/06/23 01:30:10;;;;;;;36.70;10.73;;;640.70;2073.60;;;;;;5076166;28;20024;-78
2021/06/23 01:32:36;;;;;;;36.65;9.70;;;640.60;2099.20;;;;;;5076008;28;20032;-79
2021/06/23 01:35:02;;;;;;;52.67;11.40;;;640.50;2099.20;;;;;;5075852;28;20032;-79
2021/06/23 01:37:29;;;;;;;44.75;10.95;;;640.40;2124.80;;;;;;5074505;28;20364;-76
2021/06/23 01:39:55;;;;;;;28.80;10.43;;;640.50;2099.20;;;;;;5075600;28;20021;-76
2021/06/23 01:42:21;;;;;;;35.58;10.27;;;640.50;2099.20;;;;;;5075763;28;20383;-80
2021/06/23 01:44:46;;;;;;;33.67;11.27;;;640.60;2124.80;;;;;;5075950;28;20063;-81
2021/06/23 01:47:12;;;;;;;43.20;11.18;;;640.50;2124.80;;;;;;5075640;28;20025;-78
2021/06/23 01:49:40;;;;;;;28.23;10.88;;;640.50;2099.20;;;;;;5075708;28;20039;-76
2021/06/23 01:52:06;;;;;;;32.40;10.15;;;640.60;2099.20;;;;;;5074386;28;20027;-84
2021/06/23 01:54:31;;;;;;;41.70;11.05;;;640.70;2099.20;;;;;;5075632;28;20488;-75
2021/06/23 01:56:57;;;;;;;43.35;11.93;;;640.70;2099.20;;;;;;5075508;28;20016;-76
2021/06/23 01:59:23;;;;;;;39.25;10.23;;;640.60;2099.20;;;;;;5075520;28;20035;-84
2021/06/23 02:01:52;;;;;;;41.30;11.55;;;640.60;2124.80;;;;;;5075269;28;20021;-75
2021/06/23 02:05:02;;;;;;;45.92;10.73;;;640.50;2124.80;;;;;;5075637;28;20025;-75
2021/06/23 02:07:52;;;;;;;41.95;11.25;;;640.40;2150.40;;;;;;5053101;28;20049;-75
2021/06/23 02:10:49;;;;;;;34.38;9.52;;;640.50;2150.40;;;;;;5053641;28;20033;-75
2021/06/23 02:13:17;;;;;;;;;;;640.60;2150.40;;;;;;5053580;28;20025;-75
2021/06/23 02:15:44;;;;;;;34.83;10.80;;;640.60;2150.40;;;;;;5052863;28;19966;-75
2021/06/23 02:18:10;;;;;;;33.50;11.48;;;640.50;2150.40;;;;;;5053219;28;20086;-76
2021/06/23 02:20:36;;;;;;;50.80;11.77;;;640.50;2176.00;;;;;;5052916;28;20025;-74
2021/06/23 02:23:11;;;;;;;42.70;11.15;;;640.50;2176.00;;;;;;5052725;28;20056;-79
2021/06/23 02:25:38;;;;;;;35.00;10.20;;;640.60;2176.00;;;;;;5052864;28;20037;-81
2021/06/23 02:28:05;;;;;;;37.92;10.55;;;640.80;2150.40;;;;;;5035234;28;20191;-86
2021/06/23 02:30:31;;;;;;;41.17;10.52;;;640.80;2150.40;;;;;;5052685;28;20086;-89
2021/06/23 02:32:57;;;;;;;36.72;10.30;;;640.70;2150.40;;;;;;5052883;28;20432;-76
2021/06/23 02:35:29;;;;;;;41.22;12.00;;;640.70;2150.40;;;;;;5053344;28;20369;-86
2021/06/23 02:37:58;;;;;;;44.95;12.40;;;640.60;2176.00;;;;;;5053220;28;20029;-76
2021/06/23 02:40:26;;;;;;;36.92;10.60;;;640.60;2176.00;;;;;;5053420;28;20136;-83
2021/06/23 02:42:52;;;;;;;46.63;12.77;;;640.70;2176.00;;;;;;5059395;28;20069;-76
2021/06/23 02:45:18;;;;;;;50.45;12.55;;;640.60;2176.00;;;;;;5078975;28;20123;-75
2021/06/23 02:47:44;;;;;;;56.05;13.82;;;640.70;2176.00;;;;;;5075932;28;20025;-78
2021/06/23 02:50:10;;;;;;;40.78;11.68;;;640.90;2150.40;;;;;;5073230;28;20056;-87
2021/06/23 02:52:37;;;;;;;48.83;13.73;;;640.60;2176.00;;;;;;5074504;28;20488;-79
2021/06/23 02:55:04;;;;;;;45.90;12.93;;;640.60;2201.60;;;;;;5074462;28;20016;-77
2021/06/23 02:57:32;;;;;;;27.98;11.60;;;640.70;2176.00;;;;;;5074281;28;20024;-77
2021/06/23 02:59:59;;;;;;;53.25;14.15;;;640.70;2176.00;;;;;;5074191;28;20032;-74
2021/06/23 03:02:25;;;;;;;50.03;12.32;;;640.70;2176.00;;;;;;5074428;28;20099;-78
2021/06/23 03:04:51;;;;;;;38.00;10.77;;;640.60;2176.00;;;;;;5074003;28;20062;-87
2021/06/23 03:07:17;;;;;;;47.28;12.50;;;640.70;2176.00;;;;;;5074324;28;20028;-78
2021/06/23 03:09:44;;;;;;;43.45;12.70;;;640.60;2201.60;;;;;;5074091;28;20024;-76
2021/06/23 03:12:14;;;;;;;53.05;12.70;;;640.50;2201.60;;;;;;5073808;28;20066;-75
2021/06/23 03:14:40;;;;;;;51.92;14.98;;;640.60;2201.60;;;;;;5074018;28;20054;-78
2021/06/23 03:17:06;;;;;;;50.08;13.93;;;640.60;2201.60;;;;;;5073929;28;20031;-85
2021/06/23 03:19:32;;;;;;;38.97;13.85;;;640.60;2201.60;;;;;;5074005;28;20502;-76
2021/06/23 03:22:06;;;;;;;49.25;14.02;;;640.40;2201.60;;;;;;5074281;28;20056;-79
2021/06/23 03:24:32;;;;;;;46.30;13.05;;;640.50;2201.60;;;;;;5073878;28;20106;-76
2021/06/23 03:26:58;;;;;;;46.25;14.18;;;640.50;2201.60;;;;;;5073718;28;20025;-86
2021/06/23 03:29:30;;;;;;;63.22;14.52;;;640.40;2227.20;;;;;;5073663;28;20100;-76
2021/06/23 03:31:58;;;;;;;45.28;14.07;;;640.40;2227.20;;;;;;5072815;28;20047;-76
2021/06/23 03:34:25;;;;;;;48.15;16.35;;;640.40;2227.20;;;;;;5073562;28;20095;-76
2021/06/23 03:36:51;;;;;;;46.65;15.20;;;640.40;2227.20;;;;;;5074378;28;20089;-77
2021/06/23 03:39:17;;;;;;;56.42;15.02;;;640.50;2227.20;;;;;;5075221;28;20013;-76
2021/06/23 03:41:42;;;;;;;46.88;14.00;;;640.50;2227.20;;;;;;5072591;28;20039;-74
2021/06/23 03:44:08;;;;;;;52.90;16.63;;;640.50;2201.60;;;;;;5071875;28;20443;-74
2021/06/23 03:46:34;;;;;;;51.53;15.27;;;640.50;2227.20;;;;;;5073339;28;20376;-76
2021/06/23 03:49:00;;;;;;;44.10;14.65;;;640.50;2227.20;;;;;;5073150;28;20469;-75
2021/06/23 03:51:26;;;;;;;57.10;16.13;;;640.40;2252.80;;;;;;5073365;28;20022;-75
2021/06/23 03:53:52;;;;;;;47.00;16.20;;;640.50;2252.80;;;;;;5073045;28;20094;-76
2021/06/23 03:56:18;;;;;;;35.92;13.55;;;640.50;2227.20;;;;;;5073344;28;20032;-76
2021/06/23 03:58:44;;;;;;;43.00;14.98;;;640.50;2227.20;;;;;;5073139;28;20024;-78
2021/06/23 04:01:11;;;;;;;52.00;16.27;;;640.50;2227.20;;;;;;5073082;28;20104;-76
2021/06/23 04:03:37;;;;;;;48.45;15.27;;;640.50;2252.80;;;;;;5073217;28;20025;-80
2021/06/23 04:06:03;;;;;;;60.25;15.65;;;640.50;2252.80;;;;;;5072926;28;20036;-76
2021/06/23 04:08:29;;;;;;;53.20;14.55;;;640.60;2252.80;;;;;;5072953;28;20500;-79
2021/06/23 04:10:55;;;;;;;39.17;15.00;;;640.60;2252.80;;;;;;5072652;28;20049;-81
2021/06/23 04:13:20;;;;;;;49.85;14.75;;;640.70;2252.80;;;;;;5071308;28;20469;-76
2021/06/23 04:28:07;;;;;;;47.50;14.77;;;640.90;2227.20;;;;;;5109731;27;20795;-76
2021/06/23 04:30:33;;;;;;;47.17;16.30;;;691.40;2124.80;;;;;;5108349;28;20024;-76
2021/06/23 04:32:59;;;;;;;44.70;15.35;;;691.50;2099.20;;;;;;5109223;28;20497;-74
2021/06/23 04:35:25;;;;;;;43.97;15.95;;;691.60;2099.20;;;;;;5109372;28;20035;-75
2021/06/23 04:37:51;;;;;;;53.53;14.90;;;691.60;2124.80;;;;;;5109364;28;20031;-75
2021/06/23 04:40:17;;;;;;;38.33;13.57;;;691.60;2124.80;;;;;;5090605;28;20507;-75
2021/06/23 04:42:43;;;;;;;37.28;14.85;;;691.70;2124.80;;;;;;5109918;28;20024;-76
2021/06/23 04:45:12;;;;;;;51.35;15.88;;;691.70;2124.80;;;;;;5109266;28;20070;-76
2021/06/23 04:47:38;;;;;;;33.75;14.57;;;691.70;2124.80;;;;;;5091048;28;20088;-78
2021/06/23 04:50:06;;;;;;;55.75;15.48;;;691.70;2124.80;;;;;;5109132;28;20073;-76
2021/06/23 04:52:32;;;;;;;53.40;15.77;;;691.70;2124.80;;;;;;5108925;28;20020;-76
2021/06/23 04:54:58;;;;;;;40.70;13.82;;;691.80;2124.80;;;;;;5090972;28;20050;-76
2021/06/23 04:57:23;;;;;;;45.72;15.02;;;691.80;2124.80;;;;;;5108692;28;20508;-78
2021/06/23 04:59:49;;;;;;;44.33;16.27;;;691.80;2124.80;;;;;;5109330;28;20042;-76
2021/06/23 05:02:15;;;;;;;57.45;16.02;;;691.80;2124.80;;;;;;5108667;28;20362;-76
2021/06/23 05:04:41;;;;;;;42.92;15.98;;;691.90;2150.40;;;;;;5109291;28;20016;-77
2021/06/23 05:07:08;;;;;;;45.00;16.15;;;692.10;2150.40;;;;;;5108609;28;20047;-75
2021/06/23 05:09:38;;;;;;;36.78;16.33;;;692.10;2150.40;;;;;;5108963;28;20042;-75
2021/06/23 05:12:05;;;;;;;55.30;16.20;;;692.10;2150.40;;;;;;5090285;28;20035;-75
2021/06/23 05:14:30;;;;;;;64.32;16.55;;;692.10;2150.40;;;;;;5108655;28;20024;-75
2021/06/23 05:16:56;;;;;;;36.38;16.20;;;716.80;2201.60;;;;;;5090398;28;20456;-75
2021/06/23 05:19:22;;;;;;;43.17;15.32;;;716.80;2176.00;;;;;;5090315;28;20074;-77
2021/06/23 05:21:50;;;;;;;37.17;13.70;;;716.90;2150.40;;;;;;5108447;28;20028;-74
2021/06/23 05:24:16;;;;;;;54.70;14.73;;;716.90;2150.40;;;;;;5108101;28;20069;-76
2021/06/23 05:26:42;;;;;;;38.40;13.05;;;717.10;2124.80;;;;;;5101911;28;20529;-75
2021/06/23 05:29:08;;;;;;;40.97;12.40;;;717.10;2099.20;;;;;;5094602;28;20055;-77
2021/06/23 05:31:34;;;;;;;40.03;12.45;;;717.10;2099.20;;;;;;5076879;28;20059;-79
2021/06/23 05:34:00;;;;;;;40.15;11.55;;;717.20;2073.60;;;;;;5094248;28;20100;-75
2021/06/23 05:36:26;;;;;;;41.95;13.02;;;717.20;2022.40;;;;;;5076867;28;20470;-77
2021/06/23 05:38:53;;;;;;;50.50;12.30;;;717.40;2022.40;;;;;;5094337;28;20103;-78
2021/06/23 05:41:19;;;;;;;34.42;10.70;;;717.40;2022.40;;;;;;5076440;28;20028;-76
2021/06/23 05:43:45;;;;;;;40.20;10.50;;;717.50;1971.20;;;;;;5094763;28;20521;-76
2021/06/23 05:46:10;;;;;;;43.30;11.45;;;717.50;1971.20;;;;;;5076014;28;20028;-73
2021/06/23 05:48:36;;;;;;;34.20;10.70;;;717.70;1945.60;;;;;;5094218;28;20028;-75
2021/06/23 05:51:02;;;;;;;43.65;10.82;;;717.70;1894.40;;;;;;5076070;28;20032;-74
2021/06/23 05:53:28;;;;;;;34.97;10.27;;;742.40;1920.00;;;;;;5094447;28;20028;-74
2021/06/23 05:55:55;;;;;;;47.70;11.07;;;742.50;1920.00;;;;;;5094156;28;20043;-74
2021/06/23 05:58:22;;;;;;;49.00;12.00;;;742.50;1920.00;;;;;;5076154;28;20020;-74
2021/06/23 06:00:48;;;;;;;39.95;11.27;;;742.70;1868.80;;;;;;5093974;28;20020;-74
2021/06/23 06:03:14;;;;;;;34.08;10.20;;;742.80;1868.80;;;;;;5075834;28;20389;-74
2021/06/23 06:05:39;;;;;;;34.47;11.02;;;742.80;1843.20;;;;;;5094009;28;20021;-75
2021/06/23 06:08:05;;;;;;;33.78;11.52;;;742.90;1817.60;;;;;;5093778;28;20104;-73
2021/06/23 06:10:33;;;;;;;37.88;10.70;;;742.90;1817.60;;;;;;5094042;28;20461;-74
2021/06/23 06:12:59;;;;;;;51.70;12.40;;;743.00;1792.00;;;;;;5093697;28;20024;-74
2021/06/23 06:15:25;;;;;;;37.08;10.45;;;743.00;1817.60;;;;;;5093954;28;20156;-74
2021/06/23 06:17:51;;;;;;;40.15;10.88;;;743.20;1817.60;;;;;;5093421;28;20476;-74
2021/06/23 06:20:17;;;;;;;38.13;10.27;;;743.30;1740.80;;;;;;5093981;28;20048;-73
2021/06/23 06:22:43;;;;;;;38.55;9.10;;;743.30;1689.60;;;;;;5093561;28;20103;-74
2021/06/23 06:25:10;;;;;;;27.17;7.30;;;768.10;1638.40;;;;;;5093696;28;20074;-76
2021/06/23 06:27:36;;;;;;;20.60;8.63;;;768.10;1612.80;;;;;;5093307;28;20565;-75
2021/06/23 06:30:03;;;;;;;30.48;7.95;;;768.20;1638.40;;;;;;5093812;28;20137;-74
2021/06/23 06:32:29;;;;;;;28.42;8.95;;;768.40;1612.80;;;;;;5073958;28;20032;-73
2021/06/23 06:34:55;;;;;;;33.38;8.10;;;768.40;1536.00;;;;;;5093428;28;20032;-76
2021/06/23 06:37:21;;;;;;;30.73;8.85;;;768.50;1561.60;;;;;;5093307;28;20070;-74
2021/06/23 06:39:46;;;;;;;33.15;8.70;;;768.60;1561.60;;;;;;5092556;28;20031;-75
2021/06/23 06:42:12;;;;;;;37.28;7.55;;;768.60;1536.00;;;;;;5093377;28;20024;-73
2021/06/23 06:44:38;;;;;;;26.85;7.90;;;768.80;1510.40;;;;;;5093233;28;20028;-73
2021/06/23 06:47:04;;;;;;;40.38;8.48;;;768.90;1510.40;;;;;;5093197;28;20350;-73
2021/06/23 06:49:30;;;;;;;29.00;8.07;;;793.60;1510.40;;;;;;5093127;28;20032;-76
2021/06/23 06:51:58;;;;;;;33.38;7.70;;;793.70;1510.40;;;;;;5093164;28;20019;-77
2021/06/23 06:54:26;;;;;;;38.78;7.68;;;793.70;1510.40;;;;;;5093058;28;20021;-73
2021/06/23 06:56:52;;;;;;;30.85;8.50;;;793.90;1510.40;;;;;;5093114;28;20173;-74
2021/06/23 06:59:20;;;;;;;27.33;8.00;;;794.00;1510.40;;;;;;5092945;28;20031;-73
2021/06/23 07:01:47;;;;;;;34.03;7.72;;;794.00;1510.40;;;;;;5093022;28;20027;-74
2021/06/23 07:04:15;;;;;;;30.08;7.68;;;794.20;1484.80;;;;;;5092786;28;20024;-75
2021/06/23 07:06:46;;;;;;;27.63;8.20;;;794.30;1484.80;;;;;;5072144;28;20021;-74
2021/06/23 07:09:12;;;;;;;26.65;7.15;;;794.50;1484.80;;;;;;5073845;28;20502;-75
2021/06/23 07:11:38;;;;;;;29.45;8.10;;;794.50;1484.80;;;;;;5092432;28;20027;-74
2021/06/23 07:14:04;;;;;;;30.70;7.82;;;819.20;1484.80;;;;;;5092627;28;20111;-74
2021/06/23 07:16:30;;;;;;;28.00;7.20;;;819.30;1484.80;;;;;;5092739;28;20115;-75
2021/06/23 07:18:56;;;;;;;25.45;6.88;;;819.30;1433.60;;;;;;5092225;28;20028;-73
2021/06/23 07:21:22;;;;;;;29.23;7.32;;;819.30;1459.20;;;;;;5092740;28;20113;-73
2021/06/23 07:23:50;;;;;;;43.97;8.63;;;819.50;1408.00;;;;;;5092309;28;20023;-76
2021/06/23 07:26:16;;;;;;;25.88;6.55;;;819.50;1408.00;;;;;;5092616;28;20074;-73
2021/06/23 07:28:52;;;;;;;30.50;7.57;;;819.30;1356.80;;;;;;5074128;28;20035;-77
2021/06/23 07:32:02;;;;;;;26.00;7.30;;;819.60;1382.40;;;;;;5092519;28;20028;-74
2021/06/23 07:36:43;;;;;;;24.60;6.78;;;819.80;1305.60;;;;;;5092275;28;20093;-74
2021/06/23 07:39:12;;;;;;;29.50;7.97;;;820.10;1305.60;;;;;;5092182;28;20412;-73
2021/06/23 07:41:40;;;;;;;21.30;7.15;;;820.10;1331.20;;;;;;5091779;28;20107;-73
2021/06/23 07:44:08;;;;;;;19.13;6.57;;;844.80;1305.60;;;;;;5091160;28;20012;-72
2021/06/23 07:46:38;;;;;;;23.45;6.90;;;845.10;1356.80;;;;;;5091130;28;20027;-72
2021/06/23 07:49:08;;;;;;;25.60;6.60;;;845.10;1254.40;;;;;;5083303;28;20028;-72
2021/06/23 07:54:24;;;;;;;22.65;6.82;;;845.20;1228.80;;;;;;5084296;28;20049;-73
2021/06/23 08:10:27;;;;;;;17.10;4.78;;;870.50;1152.00;;;;;;5091577;28;20031;-73
2021/06/23 08:12:56;;;;;;;21.90;4.93;;;870.50;1049.60;;;;;;5089668;28;20026;-74
2021/06/23 08:15:23;;;;;;;16.30;5.00;;;870.60;1075.20;;;;;;5089040;28;20032;-76
2021/06/23 08:17:49;;;;;;;19.88;4.63;;;870.70;1075.20;;;;;;5090707;28;20023;-74
2021/06/23 08:20:15;;;;;;;24.05;5.57;;;870.70;1075.20;;;;;;5090991;28;20024;-74
2021/06/23 08:22:40;;;;;;;19.63;5.40;;;870.70;1075.20;;;;;;5090988;28;20020;-75
2021/06/23 08:25:07;;;;;;;17.42;5.43;;;870.90;1126.40;;;;;;5090284;28;20526;-72
2021/06/23 08:27:32;;;;;;;19.65;6.65;;;871.00;1126.40;;;;;;5091219;28;20055;-73
2021/06/23 08:29:59;;;;;;;23.10;5.55;;;871.00;1100.80;;;;;;5072647;28;20024;-72
2021/06/23 08:32:25;;;;;;;19.30;6.25;;;871.00;1100.80;;;;;;5091170;28;20028;-74
2021/06/23 08:34:51;;;;;;;20.40;6.03;;;871.00;1126.40;;;;;;5071162;28;20041;-72
2021/06/23 08:37:17;;;;;;;22.85;6.22;;;871.10;1152.00;;;;;;5071219;28;20025;-73
2021/06/23 08:39:42;;;;;;;19.95;6.57;;;871.00;1126.40;;;;;;5071381;28;20039;-72
2021/06/23 08:42:09;;;;;;;25.88;6.63;;;871.00;1100.80;;;;;;5091088;28;20028;-72
2021/06/23 08:44:35;;;;;;;13.43;5.38;;;871.00;1100.80;;;;;;5090631;28;20024;-73
2021/06/23 08:47:01;;;;;;;20.20;5.75;;;871.20;1100.80;;;;;;5091140;28;20024;-76
2021/06/23 08:49:28;;;;;;;13.38;4.68;;;871.30;1100.80;;;;;;5090872;28;20027;-72
2021/06/23 08:51:55;;;;;;;16.88;5.35;;;871.20;1100.80;;;;;;5088259;28;20115;-72
2021/06/23 08:54:21;;;;;;;20.88;5.63;;;871.10;1049.60;;;;;;5091025;28;20378;-73
2021/06/23 08:56:47;;;;;;;22.23;5.68;;;871.30;1049.60;;;;;;5091125;28;20497;-74
2021/06/23 08:59:13;;;;;;;16.88;5.13;;;896.00;1049.60;;;;;;5091446;28;20020;-73
2021/06/23 09:01:40;;;;;;;14.23;4.90;;;871.30;1049.60;;;;;;5092250;28;20028;-72
2021/06/23 09:04:17;;;;;;;16.38;4.47;;;896.10;1049.60;;;;;;5094616;28;20028;-75
2021/06/23 09:07:01;;;;;;;11.60;4.45;;;896.20;1024.00;;;;;;5095084;28;20393;-73
2021/06/23 09:09:30;;;;;;;17.52;4.93;;;896.30;972.80;;;;;;5074067;28;20090;-78
2021/06/23 09:11:58;;;;;;;16.95;4.53;;;896.50;998.40;;;;;;5095155;28;20050;-76
2021/06/23 09:14:26;;;;;;;15.20;4.88;;;896.50;972.80;;;;;;5094560;28;20400;-73
2021/06/23 09:17:10;;;;;;;28.52;5.72;;;896.50;947.20;;;;;;5095041;28;20028;-77
2021/06/23 09:19:39;;;;;;;13.07;4.63;;;896.50;972.80;;;;;;5094784;28;20047;-73
2021/06/23 09:22:26;;;;;;;17.67;4.78;;;896.60;972.80;;;;;;5094529;28;20026;-73
2021/06/23 09:24:51;;;;;;;15.45;4.40;;;896.60;972.80;;;;;;5094601;28;20115;-73
2021/06/23 09:27:26;;;;;;;20.10;4.15;;;896.60;947.20;;;;;;5094388;28;20131;-73
2021/06/23 09:29:52;;;;;;;16.00;4.68;;;896.80;947.20;;;;;;5094315;28;20016;-74
2021/06/23 09:32:20;;;;;;;15.18;4.50;;;896.90;947.20;;;;;;5075531;28;20033;-73
2021/06/23 09:34:48;;;;;;;15.07;4.75;;;896.90;998.40;;;;;;5073931;28;20129;-75
2021/06/23 09:37:30;;;;;;;20.88;5.45;;;921.60;947.20;;;;;;5083847;28;20016;-72
2021/06/23 09:40:20;;;;;;;24.85;5.45;;;921.70;972.80;;;;;;5082311;28;20081;-73
2021/06/23 09:42:49;;;;;;;17.23;4.53;;;921.70;972.80;;;;;;5083908;28;20030;-73
2021/06/23 09:45:17;;;;;;;14.48;4.40;;;921.70;921.60;;;;;;5083933;28;20028;-73
2021/06/23 09:47:46;;;;;;;12.55;4.20;;;921.90;921.60;;;;;;5063849;28;20444;-73
2021/06/23 09:50:20;;;;;;;19.10;4.70;;;922.00;947.20;;;;;;5087849;28;20062;-73
2021/06/23 09:53:01;;;;;;;10.13;3.57;;;922.00;921.60;;;;;;5083919;28;20028;-73
2021/06/23 09:55:42;;;;;;;15.70;4.00;;;922.20;896.00;;;;;;5087908;28;20528;-73
2021/06/23 09:58:11;;;;;;;20.20;4.22;;;922.30;896.00;;;;;;5090754;28;20039;-73
2021/06/23 10:01:00;;;;;;;14.18;4.18;;;922.40;896.00;;;;;;5085595;28;20031;-73
2021/06/23 10:03:50;;;;;;;18.40;4.32;;;922.50;921.60;;;;;;5078646;28;20044;-75
2021/06/23 10:06:36;;;;;;;9.73;4.18;;;922.50;896.00;;;;;;5076351;28;20093;-75
2021/06/23 10:09:22;;;;;;;;;;;947.20;896.00;;;;;;5088446;28;20377;-72
2021/06/23 10:11:51;;;;;;;19.15;4.82;;;947.20;896.00;;;;;;5088948;28;20369;-73
2021/06/23 10:14:17;;;;;;;12.30;4.32;;;947.40;870.40;;;;;;5093319;28;20028;-77
2021/06/23 10:16:43;;;;;;;20.50;4.20;;;947.40;870.40;;;;;;5093700;28;20055;-73
2021/06/23 10:19:10;;;;;;;15.50;4.53;;;947.50;896.00;;;;;;5093279;28;20075;-72
2021/06/23 10:21:40;;;;;;;10.60;4.32;;;947.60;896.00;;;;;;5093696;28;20020;-72
2021/06/23 10:24:08;;;;;;;17.00;4.78;;;947.60;844.80;;;;;;5075230;28;20034;-74
2021/06/23 10:26:48;;;;;;;18.00;5.25;;;947.80;819.20;;;;;;5093254;28;20126;-73
2021/06/23 10:29:19;;;;;;;10.32;3.70;;;947.90;819.20;;;;;;5075422;28;20112;-73
2021/06/23 10:31:46;;;;;;;12.82;4.43;;;947.90;844.80;;;;;;5092756;28;20030;-73
2021/06/23 10:34:14;;;;;;;15.52;4.30;;;948.00;819.20;;;;;;5093120;28;20098;-73
2021/06/23 10:36:42;;;;;;;18.63;4.47;;;948.00;793.60;;;;;;5093482;28;20024;-73
2021/06/23 10:39:08;;;;;;;15.25;3.80;;;948.00;819.20;;;;;;5093131;28;20024;-73
2021/06/23 10:41:38;;;;;;;14.40;4.30;;;948.00;819.20;;;;;;5093363;28;20473;-74
2021/06/23 10:44:15;;;;;;;15.10;3.90;;;948.10;819.20;;;;;;5092947;28;20059;-74
2021/06/23 10:46:41;;;;;;;16.05;3.88;;;948.10;844.80;;;;;;5093349;28;20103;-77
2021/06/23 10:49:07;;;;;;;12.82;4.72;;;972.80;819.20;;;;;;5093038;28;20099;-74
2021/06/23 10:51:33;;;;;;;14.57;3.85;;;972.80;819.20;;;;;;5092867;28;20095;-72
2021/06/23 10:54:02;;;;;;;24.73;3.70;;;972.80;844.80;;;;;;5093347;28;20020;-72
2021/06/23 10:56:40;;;;;;;14.15;3.92;;;972.90;844.80;;;;;;5074491;28;20523;-73
2021/06/23 10:59:32;;;;;;;17.77;4.88;;;973.10;870.40;;;;;;5074357;28;20485;-72
2021/06/23 11:02:09;;;;;;;17.02;4.20;;;973.10;819.20;;;;;;5092749;28;20028;-73
2021/06/23 11:05:04;;;;;;;18.55;4.18;;;973.20;819.20;;;;;;5071392;28;20028;-79
2021/06/23 11:07:46;;;;;;;17.52;4.72;;;973.20;844.80;;;;;;5081787;28;20115;-74
2021/06/23 11:10:12;;;;;;;14.80;4.65;;;973.20;819.20;;;;;;5087130;28;20008;-72
2021/06/23 11:12:51;;;;;;;18.90;4.15;;;973.20;793.60;;;;;;5073518;28;20031;-73
2021/06/23 11:15:20;;;;;;;14.32;3.50;;;973.20;793.60;;;;;;5054411;28;20086;-72
2021/06/23 11:17:48;;;;;;;18.20;4.07;;;973.10;793.60;;;;;;5072375;28;20016;-75
2021/06/23 11:20:20;;;;;;;15.45;4.60;;;973.20;793.60;;;;;;5077018;28;20054;-72
2021/06/23 11:22:53;;;;;;;16.35;4.22;;;973.30;793.60;;;;;;5092087;28;20035;-72
2021/06/23 11:25:25;;;;;;;11.55;4.10;;;973.30;768.00;;;;;;5086810;28;20027;-72
2021/06/23 11:28:10;;;;;;;13.30;4.13;;;973.20;742.40;;;;;;5091513;28;20394;-72
2021/06/23 11:30:50;;;;;;;15.40;3.43;;;973.20;768.00;;;;;;5091659;28;20023;-73
2021/06/23 11:33:28;;;;;;;13.93;4.53;;;973.30;793.60;;;;;;5092073;28;20264;-72
2021/06/23 11:35:54;;;;;;;11.85;3.85;;;973.30;819.20;;;;;;5073056;28;20081;-75
2021/06/23 11:38:20;;;;;;;14.80;4.15;;;973.40;793.60;;;;;;5092193;28;20073;-72
2021/06/23 11:40:47;;;;;;;22.85;5.05;;;973.40;793.60;;;;;;5091997;28;20035;-72
2021/06/23 11:43:13;;;;;;;16.58;4.07;;;973.40;793.60;;;;;;5092358;28;20111;-72
2021/06/23 11:45:38;;;;;;;13.15;4.03;;;973.40;793.60;;;;;;5091600;28;20127;-74
2021/06/23 11:48:04;;;;;;;14.43;4.03;;;973.40;793.60;;;;;;5091837;28;20020;-73
2021/06/23 11:50:30;;;;;;;17.77;4.20;;;973.20;793.60;;;;;;5091084;28;20035;-72
2021/06/23 11:52:56;;;;;;;20.50;4.70;;;973.30;819.20;;;;;;5091502;28;20024;-74
2021/06/23 11:55:25;;;;;;;14.65;4.07;;;973.40;768.00;;;;;;5070529;28;20162;-73
2021/06/23 11:57:57;;;;;;;21.60;5.20;;;973.40;819.20;;;;;;5091910;28;20111;-72
2021/06/23 12:00:24;;;;;;;16.50;4.57;;;973.60;793.60;;;;;;5091627;28;20031;-72
2021/06/23 12:02:50;;;;;;;17.15;4.68;;;973.50;768.00;;;;;;5091916;28;20030;-74
2021/06/23 12:05:17;;;;;;;14.90;4.03;;;973.50;793.60;;;;;;5091863;28;20024;-72
2021/06/23 12:07:43;;;;;;;14.18;4.40;;;973.50;768.00;;;;;;5091712;28;20020;-73
2021/06/23 12:10:09;;;;;;;23.80;4.68;;;973.40;793.60;;;;;;5091876;28;20366;-72
2021/06/23 12:12:35;;;;;;;13.55;3.50;;;973.50;793.60;;;;;;5090991;28;20016;-76
2021/06/23 12:15:01;;;;;;;14.18;3.60;;;973.50;768.00;;;;;;5072045;28;20037;-72
2021/06/23 12:17:27;;;;;;;11.82;3.95;;;973.50;768.00;;;;;;5072747;28;20046;-72
2021/06/23 12:19:53;;;;;;;12.52;4.00;;;973.60;742.40;;;;;;5091252;28;20024;-72
2021/06/23 12:22:20;;;;;;;17.42;4.38;;;973.60;793.60;;;;;;5073292;28;20057;-73
2021/06/23 12:24:46;;;;;;;13.30;4.13;;;973.60;768.00;;;;;;5091576;28;20028;-72
2021/06/23 12:27:12;;;;;;;12.38;4.25;;;973.60;793.60;;;;;;5090788;28;20044;-73
2021/06/23 12:29:38;;;;;;;19.05;3.65;;;973.70;742.40;;;;;;5091165;28;20046;-72
2021/06/23 12:32:05;;;;;;;10.85;3.63;;;973.70;742.40;;;;;;5073646;28;20466;-73
2021/06/23 12:34:31;;;;;;;11.32;3.60;;;973.70;768.00;;;;;;5091099;28;20023;-72
2021/06/23 12:36:57;;;;;;;18.30;3.83;;;973.70;768.00;;;;;;5092789;28;20032;-72
2021/06/23 12:39:24;;;;;;;13.25;4.00;;;973.70;768.00;;;;;;5091503;28;20125;-76
2021/06/23 12:41:50;;;;;;;21.45;5.63;;;998.40;793.60;;;;;;5095344;28;20035;-74
2021/06/23 12:44:16;;;;;;;14.48;3.78;;;973.70;768.00;;;;;;5095574;28;20044;-72